West Plains, MO (65775)

4:54 AM CST on February 10, 2016 (GMT -0600)
Quail Run | | Change Station
CLOSE
Current Station
Personal Weather Station
Location: West Plains, MO
Elevation: 1138 ft
Nearby Weather Stations

Elev 1138 ft 36.73 °N, 91.91 °W | Updated 1 minute ago

Clear
Clear
18.7 °F
Feels Like 19 °F
N
0.0
Wind Variable Wind from SW
Gusts 0.0 mph

Today
High -- | Low -- °F
--% Chance of Precip.
Yesterday
High -- | Low -- °F
Precip. -- in
Pressure 30.20 in
Visibility 10.0 miles
Clouds Clear
Windchill 19 °F
Dew Point 9 °F
Humidity 66%
Rainfall 0.00 in
Snow Depth Not available.
7:01 AM 5:42 PM
Waxing Crescent, 5% visible
METAR KUNO 100953Z AUTO 32005KT 10SM CLR M08/M15 A3016 RMK AO2 SLP227 T10781150
Pressure 30.20 in
Visibility 10.0 miles
Clouds Clear
Windchill 19 °F
Dew Point 9 °F
Humidity 66%
Rainfall 0.00 in
Snow Depth Not available.
7:01 AM 5:42 PM
Waxing Crescent, 5% visible
METAR KUNO 100953Z AUTO 32005KT 10SM CLR M08/M15 A3016 RMK AO2 SLP227 T10781150

10-Day Weather Forecast

Almanac

Astronomy

Feb. 10, 2016 Rise Set
Actual Time
Civil Twilight
Nautical Twilight
Astronomical Twilight
Moon
Length of Visible Light
Length of Day
Tomorrow will be .
, % of the Moon is Illuminated

Today's Extremes

State Highs State Lows

Community

WunderPhotos

Upload Photos

1,891,830 photos uploaded!

WunderBlog® & News

Nearby

Air Quality

  Air Quality AQ Index Pollutant
Not available.

Snow Depth

Station Depth Elevation

Earthquake Activity

City Distance Mag. Time & Date
Minimum magnitude displayed is 2.5.

Coastal Water Temperatures

Place Temperature

Stations

Nearby Weather Stations

Station Location Temp. Windchill Dew Point Humidity Wind Precip. Elev Updated Type
                   

Watches & Warnings

There are currently no watches in effect.